sensor_id;sensor_type;location;lat;lon;timestamp;P1;durP1;ratioP1;P2;durP2;ratioP2
48623;SDS011;34422;45.802;16.114;2022-12-07T00:01:49;49.25;;;31.42;;
48623;SDS011;34422;45.802;16.114;2022-12-07T00:04:16;54.45;;;35.47;;
48623;SDS011;34422;45.802;16.114;2022-12-07T00:06:45;52.60;;;33.92;;
48623;SDS011;34422;45.802;16.114;2022-12-07T00:09:16;52.28;;;33.53;;
48623;SDS011;34422;45.802;16.114;2022-12-07T00:11:44;58.35;;;35.58;;
48623;SDS011;34422;45.802;16.114;2022-12-07T00:14:16;55.55;;;36.88;;
48623;SDS011;34422;45.802;16.114;2022-12-07T00:16:43;63.38;;;38.35;;
48623;SDS011;34422;45.802;16.114;2022-12-07T00:19:12;58.38;;;36.88;;
48623;SDS011;34422;45.802;16.114;2022-12-07T00:21:39;60.72;;;38.08;;
48623;SDS011;34422;45.802;16.114;2022-12-07T00:24:06;63.17;;;38.00;;
48623;SDS011;34422;45.802;16.114;2022-12-07T00:26:34;59.00;;;38.70;;
48623;SDS011;34422;45.802;16.114;2022-12-07T00:29:15;62.38;;;37.13;;
48623;SDS011;34422;45.802;16.114;2022-12-07T00:31:44;53.10;;;35.50;;
48623;SDS011;34422;45.802;16.114;2022-12-07T00:34:12;55.88;;;34.85;;
48623;SDS011;34422;45.802;16.114;2022-12-07T00:36:49;54.33;;;35.08;;
48623;SDS011;34422;45.802;16.114;2022-12-07T00:39:16;53.80;;;35.13;;
48623;SDS011;34422;45.802;16.114;2022-12-07T00:41:43;53.45;;;34.33;;
48623;SDS011;34422;45.802;16.114;2022-12-07T00:44:10;54.72;;;35.13;;
48623;SDS011;34422;45.802;16.114;2022-12-07T00:46:37;56.63;;;35.90;;
48623;SDS011;34422;45.802;16.114;2022-12-07T00:49:04;53.70;;;33.90;;
48623;SDS011;34422;45.802;16.114;2022-12-07T00:51:30;57.38;;;34.72;;
48623;SDS011;34422;45.802;16.114;2022-12-07T00:53:57;56.75;;;33.80;;
48623;SDS011;34422;45.802;16.114;2022-12-07T00:56:25;54.58;;;34.33;;
48623;SDS011;34422;45.802;16.114;2022-12-07T00:58:54;50.85;;;32.58;;
48623;SDS011;34422;45.802;16.114;2022-12-07T01:01:23;52.50;;;32.63;;
48623;SDS011;34422;45.802;16.114;2022-12-07T01:03:51;54.53;;;32.95;;
48623;SDS011;34422;45.802;16.114;2022-12-07T01:06:19;51.33;;;33.42;;
48623;SDS011;34422;45.802;16.114;2022-12-07T01:08:47;53.67;;;34.65;;
48623;SDS011;34422;45.802;16.114;2022-12-07T01:11:16;47.78;;;31.00;;
48623;SDS011;34422;45.802;16.114;2022-12-07T01:13:44;47.35;;;28.02;;
48623;SDS011;34422;45.802;16.114;2022-12-07T01:16:13;52.35;;;30.55;;
48623;SDS011;34422;45.802;16.114;2022-12-07T01:18:41;51.13;;;32.78;;
48623;SDS011;34422;45.802;16.114;2022-12-07T01:21:13;46.35;;;30.55;;
48623;SDS011;34422;45.802;16.114;2022-12-07T01:23:41;44.40;;;28.65;;
48623;SDS011;34422;45.802;16.114;2022-12-07T01:26:13;43.88;;;28.25;;
48623;SDS011;34422;45.802;16.114;2022-12-07T01:28:44;41.22;;;27.15;;
48623;SDS011;34422;45.802;16.114;2022-12-07T01:31:15;45.47;;;29.02;;
48623;SDS011;34422;45.802;16.114;2022-12-07T01:33:45;43.50;;;27.67;;
48623;SDS011;34422;45.802;16.114;2022-12-07T01:36:17;49.05;;;30.65;;
48623;SDS011;34422;45.802;16.114;2022-12-07T01:38:46;42.25;;;27.55;;
48623;SDS011;34422;45.802;16.114;2022-12-07T01:41:14;43.95;;;28.25;;
48623;SDS011;34422;45.802;16.114;2022-12-07T01:46:33;42.33;;;27.08;;
48623;SDS011;34422;45.802;16.114;2022-12-07T01:49:00;43.53;;;27.10;;
48623;SDS011;34422;45.802;16.114;2022-12-07T01:51:30;41.88;;;26.30;;
48623;SDS011;34422;45.802;16.114;2022-12-07T01:53:57;43.95;;;26.40;;
48623;SDS011;34422;45.802;16.114;2022-12-07T01:56:25;39.45;;;25.70;;
48623;SDS011;34422;45.802;16.114;2022-12-07T01:58:55;41.22;;;25.27;;
48623;SDS011;34422;45.802;16.114;2022-12-07T02:01:25;44.25;;;26.48;;
48623;SDS011;34422;45.802;16.114;2022-12-07T02:03:52;41.78;;;27.02;;
48623;SDS011;34422;45.802;16.114;2022-12-07T02:06:20;47.03;;;26.85;;
48623;SDS011;34422;45.802;16.114;2022-12-07T02:11:18;40.35;;;25.85;;
48623;SDS011;34422;45.802;16.114;2022-12-07T02:13:45;34.85;;;22.63;;
48623;SDS011;34422;45.802;16.114;2022-12-07T02:16:20;39.63;;;24.80;;
48623;SDS011;34422;45.802;16.114;2022-12-07T02:21:55;35.35;;;23.23;;
48623;SDS011;34422;45.802;16.114;2022-12-07T02:24:45;35.38;;;22.70;;
48623;SDS011;34422;45.802;16.114;2022-12-07T02:30:15;31.27;;;20.73;;
48623;SDS011;34422;45.802;16.114;2022-12-07T02:35:38;34.50;;;23.30;;
48623;SDS011;34422;45.802;16.114;2022-12-07T02:38:14;41.08;;;23.33;;
48623;SDS011;34422;45.802;16.114;2022-12-07T02:43:30;37.10;;;25.38;;
48623;SDS011;34422;45.802;16.114;2022-12-07T02:46:10;36.58;;;24.10;;
48623;SDS011;34422;45.802;16.114;2022-12-07T02:48:41;34.45;;;22.80;;
48623;SDS011;34422;45.802;16.114;2022-12-07T02:51:10;36.63;;;24.42;;
48623;SDS011;34422;45.802;16.114;2022-12-07T02:53:39;37.80;;;25.20;;
48623;SDS011;34422;45.802;16.114;2022-12-07T02:56:12;37.25;;;23.95;;
48623;SDS011;34422;45.802;16.114;2022-12-07T02:59:22;37.97;;;24.80;;
48623;SDS011;34422;45.802;16.114;2022-12-07T03:05:09;37.92;;;23.75;;
48623;SDS011;34422;45.802;16.114;2022-12-07T03:16:08;35.55;;;23.42;;
48623;SDS011;34422;45.802;16.114;2022-12-07T03:21:34;35.50;;;23.05;;
48623;SDS011;34422;45.802;16.114;2022-12-07T03:24:09;34.42;;;22.27;;
48623;SDS011;34422;45.802;16.114;2022-12-07T03:27:26;35.53;;;22.83;;
48623;SDS011;34422;45.802;16.114;2022-12-07T03:29:38;36.97;;;22.65;;
48623;SDS011;34422;45.802;16.114;2022-12-07T03:32:12;38.42;;;25.92;;
48623;SDS011;34422;45.802;16.114;2022-12-07T03:34:47;39.13;;;25.00;;
48623;SDS011;34422;45.802;16.114;2022-12-07T03:37:22;35.67;;;22.88;;
48623;SDS011;34422;45.802;16.114;2022-12-07T03:40:04;39.60;;;23.52;;
48623;SDS011;34422;45.802;16.114;2022-12-07T03:42:39;37.90;;;24.40;;
48623;SDS011;34422;45.802;16.114;2022-12-07T03:45:06;34.70;;;22.75;;
48623;SDS011;34422;45.802;16.114;2022-12-07T03:47:45;31.17;;;20.73;;
48623;SDS011;34422;45.802;16.114;2022-12-07T03:50:34;32.15;;;20.65;;
48623;SDS011;34422;45.802;16.114;2022-12-07T03:53:11;36.65;;;22.80;;
48623;SDS011;34422;45.802;16.114;2022-12-07T03:55:42;39.45;;;24.95;;
48623;SDS011;34422;45.802;16.114;2022-12-07T03:58:13;34.80;;;23.35;;
48623;SDS011;34422;45.802;16.114;2022-12-07T04:00:44;36.22;;;23.52;;
48623;SDS011;34422;45.802;16.114;2022-12-07T04:03:11;32.22;;;21.33;;
48623;SDS011;34422;45.802;16.114;2022-12-07T04:05:38;30.27;;;20.75;;
48623;SDS011;34422;45.802;16.114;2022-12-07T04:08:06;31.38;;;20.20;;
48623;SDS011;34422;45.802;16.114;2022-12-07T04:10:33;30.95;;;18.95;;
48623;SDS011;34422;45.802;16.114;2022-12-07T04:13:00;26.30;;;17.75;;
48623;SDS011;34422;45.802;16.114;2022-12-07T04:15:27;32.65;;;21.60;;
48623;SDS011;34422;45.802;16.114;2022-12-07T04:17:54;28.58;;;20.02;;
48623;SDS011;34422;45.802;16.114;2022-12-07T04:20:21;27.98;;;20.08;;
48623;SDS011;34422;45.802;16.114;2022-12-07T04:22:48;36.33;;;23.85;;
48623;SDS011;34422;45.802;16.114;2022-12-07T04:25:15;34.80;;;22.95;;
48623;SDS011;34422;45.802;16.114;2022-12-07T04:27:42;37.17;;;25.30;;
48623;SDS011;34422;45.802;16.114;2022-12-07T04:30:09;34.42;;;23.33;;
48623;SDS011;34422;45.802;16.114;2022-12-07T04:32:36;39.38;;;25.00;;
48623;SDS011;34422;45.802;16.114;2022-12-07T04:35:03;37.63;;;24.30;;
48623;SDS011;34422;45.802;16.114;2022-12-07T04:37:30;36.80;;;23.73;;
48623;SDS011;34422;45.802;16.114;2022-12-07T04:39:58;36.45;;;24.40;;
48623;SDS011;34422;45.802;16.114;2022-12-07T04:42:24;36.17;;;24.05;;
48623;SDS011;34422;45.802;16.114;2022-12-07T04:44:51;32.03;;;21.80;;
48623;SDS011;34422;45.802;16.114;2022-12-07T04:47:18;38.55;;;24.02;;
48623;SDS011;34422;45.802;16.114;2022-12-07T04:49:45;33.92;;;22.58;;
48623;SDS011;34422;45.802;16.114;2022-12-07T04:52:12;32.97;;;19.95;;
48623;SDS011;34422;45.802;16.114;2022-12-07T04:54:39;30.40;;;19.80;;
48623;SDS011;34422;45.802;16.114;2022-12-07T04:57:06;31.27;;;18.45;;
48623;SDS011;34422;45.802;16.114;2022-12-07T04:59:33;27.10;;;17.58;;
48623;SDS011;34422;45.802;16.114;2022-12-07T05:01:59;28.15;;;18.08;;
48623;SDS011;34422;45.802;16.114;2022-12-07T05:04:26;28.58;;;19.00;;
48623;SDS011;34422;45.802;16.114;2022-12-07T05:06:53;28.20;;;18.25;;
48623;SDS011;34422;45.802;16.114;2022-12-07T05:09:20;27.42;;;17.90;;
48623;SDS011;34422;45.802;16.114;2022-12-07T05:11:47;29.92;;;17.83;;
48623;SDS011;34422;45.802;16.114;2022-12-07T05:14:18;26.88;;;18.52;;
48623;SDS011;34422;45.802;16.114;2022-12-07T05:16:48;30.35;;;18.67;;
48623;SDS011;34422;45.802;16.114;2022-12-07T05:19:16;27.98;;;19.00;;
48623;SDS011;34422;45.802;16.114;2022-12-07T05:21:44;32.20;;;20.10;;
48623;SDS011;34422;45.802;16.114;2022-12-07T05:24:12;30.77;;;19.60;;
48623;SDS011;34422;45.802;16.114;2022-12-07T05:26:40;30.48;;;19.63;;
48623;SDS011;34422;45.802;16.114;2022-12-07T05:29:07;28.05;;;18.13;;
48623;SDS011;34422;45.802;16.114;2022-12-07T05:31:34;29.85;;;19.27;;
48623;SDS011;34422;45.802;16.114;2022-12-07T05:34:01;31.23;;;19.02;;
48623;SDS011;34422;45.802;16.114;2022-12-07T05:36:28;30.75;;;20.20;;
48623;SDS011;34422;45.802;16.114;2022-12-07T05:38:57;29.50;;;19.70;;
48623;SDS011;34422;45.802;16.114;2022-12-07T05:41:24;33.17;;;21.92;;
48623;SDS011;34422;45.802;16.114;2022-12-07T05:44:10;31.65;;;21.27;;
48623;SDS011;34422;45.802;16.114;2022-12-07T05:46:36;33.80;;;23.17;;
48623;SDS011;34422;45.802;16.114;2022-12-07T05:49:03;36.28;;;22.45;;
48623;SDS011;34422;45.802;16.114;2022-12-07T05:51:30;36.05;;;21.15;;
48623;SDS011;34422;45.802;16.114;2022-12-07T05:53:58;36.72;;;23.85;;
48623;SDS011;34422;45.802;16.114;2022-12-07T05:56:25;34.13;;;21.88;;
48623;SDS011;34422;45.802;16.114;2022-12-07T05:58:53;34.80;;;23.38;;
48623;SDS011;34422;45.802;16.114;2022-12-07T06:01:39;38.58;;;24.67;;
48623;SDS011;34422;45.802;16.114;2022-12-07T06:04:06;36.13;;;23.27;;
48623;SDS011;34422;45.802;16.114;2022-12-07T06:06:33;39.10;;;24.45;;
48623;SDS011;34422;45.802;16.114;2022-12-07T06:09:00;35.03;;;21.27;;
48623;SDS011;34422;45.802;16.114;2022-12-07T06:11:27;38.10;;;22.73;;
48623;SDS011;34422;45.802;16.114;2022-12-07T06:14:13;35.35;;;23.27;;
48623;SDS011;34422;45.802;16.114;2022-12-07T06:16:39;38.00;;;22.63;;
48623;SDS011;34422;45.802;16.114;2022-12-07T06:19:06;36.45;;;23.83;;
48623;SDS011;34422;45.802;16.114;2022-12-07T06:21:33;32.03;;;20.83;;
48623;SDS011;34422;45.802;16.114;2022-12-07T06:24:00;38.10;;;24.08;;
48623;SDS011;34422;45.802;16.114;2022-12-07T06:26:27;31.10;;;20.23;;
48623;SDS011;34422;45.802;16.114;2022-12-07T06:28:54;29.98;;;19.75;;
48623;SDS011;34422;45.802;16.114;2022-12-07T06:31:20;27.13;;;18.23;;
48623;SDS011;34422;45.802;16.114;2022-12-07T06:33:48;29.50;;;20.20;;
48623;SDS011;34422;45.802;16.114;2022-12-07T06:36:14;28.45;;;17.83;;
48623;SDS011;34422;45.802;16.114;2022-12-07T06:38:41;31.30;;;19.23;;
48623;SDS011;34422;45.802;16.114;2022-12-07T06:41:08;29.27;;;20.38;;
48623;SDS011;34422;45.802;16.114;2022-12-07T06:43:35;29.55;;;19.85;;
48623;SDS011;34422;45.802;16.114;2022-12-07T06:46:02;31.38;;;20.27;;
48623;SDS011;34422;45.802;16.114;2022-12-07T06:48:29;28.08;;;19.52;;
48623;SDS011;34422;45.802;16.114;2022-12-07T06:50:55;30.10;;;21.10;;
48623;SDS011;34422;45.802;16.114;2022-12-07T06:53:22;31.65;;;20.45;;
48623;SDS011;34422;45.802;16.114;2022-12-07T06:55:49;36.47;;;23.48;;
48623;SDS011;34422;45.802;16.114;2022-12-07T06:58:16;31.73;;;21.85;;
48623;SDS011;34422;45.802;16.114;2022-12-07T07:00:44;35.83;;;22.77;;
48623;SDS011;34422;45.802;16.114;2022-12-07T07:03:11;37.17;;;23.40;;
48623;SDS011;34422;45.802;16.114;2022-12-07T07:05:38;41.33;;;25.42;;
48623;SDS011;34422;45.802;16.114;2022-12-07T07:08:05;42.60;;;25.13;;
48623;SDS011;34422;45.802;16.114;2022-12-07T07:10:32;37.55;;;24.45;;
48623;SDS011;34422;45.802;16.114;2022-12-07T07:12:59;39.22;;;23.73;;
48623;SDS011;34422;45.802;16.114;2022-12-07T07:15:25;38.22;;;23.58;;
48623;SDS011;34422;45.802;16.114;2022-12-07T07:17:52;43.72;;;26.67;;
48623;SDS011;34422;45.802;16.114;2022-12-07T07:20:19;46.78;;;30.83;;
48623;SDS011;34422;45.802;16.114;2022-12-07T07:22:46;49.17;;;32.42;;
48623;SDS011;34422;45.802;16.114;2022-12-07T07:25:13;84.38;;;46.35;;
48623;SDS011;34422;45.802;16.114;2022-12-07T07:27:40;62.80;;;38.13;;
48623;SDS011;34422;45.802;16.114;2022-12-07T07:30:08;57.15;;;36.45;;
48623;SDS011;34422;45.802;16.114;2022-12-07T07:32:35;46.22;;;29.23;;
48623;SDS011;34422;45.802;16.114;2022-12-07T07:35:02;47.83;;;29.98;;
48623;SDS011;34422;45.802;16.114;2022-12-07T07:37:29;53.03;;;34.03;;
48623;SDS011;34422;45.802;16.114;2022-12-07T07:39:56;65.00;;;38.45;;
48623;SDS011;34422;45.802;16.114;2022-12-07T07:42:23;49.10;;;33.88;;
48623;SDS011;34422;45.802;16.114;2022-12-07T07:44:49;55.75;;;36.45;;
48623;SDS011;34422;45.802;16.114;2022-12-07T07:47:16;64.05;;;41.28;;
48623;SDS011;34422;45.802;16.114;2022-12-07T07:49:43;51.97;;;33.05;;
48623;SDS011;34422;45.802;16.114;2022-12-07T07:52:10;46.85;;;30.35;;
48623;SDS011;34422;45.802;16.114;2022-12-07T07:54:37;36.17;;;23.40;;
48623;SDS011;34422;45.802;16.114;2022-12-07T07:57:04;55.22;;;34.38;;
48623;SDS011;34422;45.802;16.114;2022-12-07T07:59:31;38.58;;;25.38;;
48623;SDS011;34422;45.802;16.114;2022-12-07T08:01:58;48.00;;;28.65;;
48623;SDS011;34422;45.802;16.114;2022-12-07T08:04:25;39.65;;;26.83;;
48623;SDS011;34422;45.802;16.114;2022-12-07T08:06:52;37.63;;;24.52;;
48623;SDS011;34422;45.802;16.114;2022-12-07T08:09:19;38.92;;;23.48;;
48623;SDS011;34422;45.802;16.114;2022-12-07T08:11:46;36.22;;;23.33;;
48623;SDS011;34422;45.802;16.114;2022-12-07T08:14:13;34.75;;;23.10;;
48623;SDS011;34422;45.802;16.114;2022-12-07T08:16:39;35.80;;;23.27;;
48623;SDS011;34422;45.802;16.114;2022-12-07T08:19:06;36.40;;;23.35;;
48623;SDS011;34422;45.802;16.114;2022-12-07T08:21:34;35.00;;;23.95;;
48623;SDS011;34422;45.802;16.114;2022-12-07T08:24:01;36.65;;;25.40;;
48623;SDS011;34422;45.802;16.114;2022-12-07T08:26:27;43.75;;;27.23;;
48623;SDS011;34422;45.802;16.114;2022-12-07T08:28:54;37.85;;;25.20;;
48623;SDS011;34422;45.802;16.114;2022-12-07T08:31:21;35.13;;;24.48;;
48623;SDS011;34422;45.802;16.114;2022-12-07T08:33:48;45.33;;;28.40;;
48623;SDS011;34422;45.802;16.114;2022-12-07T08:36:15;34.72;;;23.00;;
48623;SDS011;34422;45.802;16.114;2022-12-07T08:38:43;39.92;;;24.38;;
48623;SDS011;34422;45.802;16.114;2022-12-07T08:41:10;41.15;;;23.92;;
48623;SDS011;34422;45.802;16.114;2022-12-07T08:43:37;41.85;;;25.65;;
48623;SDS011;34422;45.802;16.114;2022-12-07T08:48:50;43.20;;;26.48;;
48623;SDS011;34422;45.802;16.114;2022-12-07T08:51:23;36.75;;;24.02;;
48623;SDS011;34422;45.802;16.114;2022-12-07T08:53:50;30.08;;;19.58;;
48623;SDS011;34422;45.802;16.114;2022-12-07T08:56:18;28.77;;;18.55;;
48623;SDS011;34422;45.802;16.114;2022-12-07T08:58:46;34.63;;;21.30;;
48623;SDS011;34422;45.802;16.114;2022-12-07T09:01:12;28.08;;;18.55;;
48623;SDS011;34422;45.802;16.114;2022-12-07T09:03:40;35.72;;;22.10;;
48623;SDS011;34422;45.802;16.114;2022-12-07T09:06:07;29.45;;;18.63;;
48623;SDS011;34422;45.802;16.114;2022-12-07T09:08:41;28.77;;;17.52;;
48623;SDS011;34422;45.802;16.114;2022-12-07T09:11:12;28.65;;;18.67;;
48623;SDS011;34422;45.802;16.114;2022-12-07T09:13:38;39.17;;;23.55;;
48623;SDS011;34422;45.802;16.114;2022-12-07T09:16:05;31.05;;;18.35;;
48623;SDS011;34422;45.802;16.114;2022-12-07T09:18:32;28.10;;;18.33;;
48623;SDS011;34422;45.802;16.114;2022-12-07T09:20:59;27.42;;;16.38;;
48623;SDS011;34422;45.802;16.114;2022-12-07T09:23:26;28.10;;;17.48;;
48623;SDS011;34422;45.802;16.114;2022-12-07T09:25:53;25.35;;;15.65;;
48623;SDS011;34422;45.802;16.114;2022-12-07T09:28:20;25.50;;;16.70;;
48623;SDS011;34422;45.802;16.114;2022-12-07T09:30:47;28.88;;;16.95;;
48623;SDS011;34422;45.802;16.114;2022-12-07T09:33:15;26.10;;;16.30;;
48623;SDS011;34422;45.802;16.114;2022-12-07T09:35:45;23.65;;;15.40;;
48623;SDS011;34422;45.802;16.114;2022-12-07T09:38:16;26.63;;;17.25;;
48623;SDS011;34422;45.802;16.114;2022-12-07T09:40:44;26.85;;;17.13;;
48623;SDS011;34422;45.802;16.114;2022-12-07T09:43:13;29.90;;;18.05;;
48623;SDS011;34422;45.802;16.114;2022-12-07T09:45:40;24.05;;;15.50;;
48623;SDS011;34422;45.802;16.114;2022-12-07T09:48:17;27.95;;;18.88;;
48623;SDS011;34422;45.802;16.114;2022-12-07T09:50:47;26.73;;;17.33;;
48623;SDS011;34422;45.802;16.114;2022-12-07T09:53:19;28.33;;;18.80;;
48623;SDS011;34422;45.802;16.114;2022-12-07T09:55:51;26.75;;;17.15;;
48623;SDS011;34422;45.802;16.114;2022-12-07T09:58:25;25.33;;;16.40;;
48623;SDS011;34422;45.802;16.114;2022-12-07T10:00:55;24.77;;;17.27;;
48623;SDS011;34422;45.802;16.114;2022-12-07T10:03:26;27.30;;;17.55;;
48623;SDS011;34422;45.802;16.114;2022-12-07T10:05:54;25.02;;;16.30;;
48623;SDS011;34422;45.802;16.114;2022-12-07T10:08:22;27.70;;;19.02;;
48623;SDS011;34422;45.802;16.114;2022-12-07T10:10:53;27.00;;;17.40;;
48623;SDS011;34422;45.802;16.114;2022-12-07T10:13:41;37.00;;;23.33;;
48623;SDS011;34422;45.802;16.114;2022-12-07T10:16:45;29.52;;;18.98;;
48623;SDS011;34422;45.802;16.114;2022-12-07T10:24:39;34.28;;;20.17;;
48623;SDS011;34422;45.802;16.114;2022-12-07T10:27:22;25.77;;;16.97;;
48623;SDS011;34422;45.802;16.114;2022-12-07T10:29:55;23.23;;;15.00;;
48623;SDS011;34422;45.802;16.114;2022-12-07T10:32:29;34.83;;;21.58;;
48623;SDS011;34422;45.802;16.114;2022-12-07T10:35:15;24.00;;;15.73;;
48623;SDS011;34422;45.802;16.114;2022-12-07T10:37:49;22.27;;;14.68;;
48623;SDS011;34422;45.802;16.114;2022-12-07T10:48:24;19.88;;;14.00;;
48623;SDS011;34422;45.802;16.114;2022-12-07T10:53:49;18.40;;;12.40;;
48623;SDS011;34422;45.802;16.114;2022-12-07T11:04:42;27.17;;;14.98;;
48623;SDS011;34422;45.802;16.114;2022-12-07T11:07:42;16.88;;;11.52;;
48623;SDS011;34422;45.802;16.114;2022-12-07T11:10:30;28.27;;;16.77;;
48623;SDS011;34422;45.802;16.114;2022-12-07T11:20:59;21.90;;;13.35;;
48623;SDS011;34422;45.802;16.114;2022-12-07T11:26:52;19.45;;;11.95;;
48623;SDS011;34422;45.802;16.114;2022-12-07T11:29:51;20.73;;;12.10;;
48623;SDS011;34422;45.802;16.114;2022-12-07T11:35:40;16.73;;;11.18;;
48623;SDS011;34422;45.802;16.114;2022-12-07T11:38:14;18.35;;;11.60;;
48623;SDS011;34422;45.802;16.114;2022-12-07T11:40:45;19.08;;;11.77;;
48623;SDS011;34422;45.802;16.114;2022-12-07T11:43:20;19.50;;;12.40;;
48623;SDS011;34422;45.802;16.114;2022-12-07T11:46:05;16.33;;;11.13;;
48623;SDS011;34422;45.802;16.114;2022-12-07T11:48:38;19.65;;;13.18;;
48623;SDS011;34422;45.802;16.114;2022-12-07T11:51:10;15.60;;;10.27;;
48623;SDS011;34422;45.802;16.114;2022-12-07T11:53:39;33.40;;;18.85;;
48623;SDS011;34422;45.802;16.114;2022-12-07T12:04:23;27.20;;;16.02;;
48623;SDS011;34422;45.802;16.114;2022-12-07T12:06:58;30.52;;;19.17;;
48623;SDS011;34422;45.802;16.114;2022-12-07T12:09:30;24.45;;;13.68;;
48623;SDS011;34422;45.802;16.114;2022-12-07T12:25:28;15.90;;;8.80;;
48623;SDS011;34422;45.802;16.114;2022-12-07T12:27:58;18.88;;;9.23;;
48623;SDS011;34422;45.802;16.114;2022-12-07T12:33:14;14.77;;;8.95;;
48623;SDS011;34422;45.802;16.114;2022-12-07T12:36:16;15.77;;;8.43;;
48623;SDS011;34422;45.802;16.114;2022-12-07T12:51:46;17.08;;;10.38;;
48623;SDS011;34422;45.802;16.114;2022-12-07T12:54:36;26.52;;;15.38;;
48623;SDS011;34422;45.802;16.114;2022-12-07T12:57:12;23.20;;;13.70;;
48623;SDS011;34422;45.802;16.114;2022-12-07T13:28:43;13.80;;;7.50;;
48623;SDS011;34422;45.802;16.114;2022-12-07T13:33:56;17.35;;;10.43;;
48623;SDS011;34422;45.802;16.114;2022-12-07T13:36:29;15.00;;;9.57;;
48623;SDS011;34422;45.802;16.114;2022-12-07T13:41:41;18.85;;;10.32;;
48623;SDS011;34422;45.802;16.114;2022-12-07T13:44:11;20.48;;;11.13;;
48623;SDS011;34422;45.802;16.114;2022-12-07T13:49:17;17.90;;;11.13;;
48623;SDS011;34422;45.802;16.114;2022-12-07T13:51:49;21.15;;;12.50;;
48623;SDS011;34422;45.802;16.114;2022-12-07T13:54:17;18.08;;;10.10;;
48623;SDS011;34422;45.802;16.114;2022-12-07T13:56:47;17.52;;;10.38;;
48623;SDS011;34422;45.802;16.114;2022-12-07T13:59:17;19.20;;;11.02;;
48623;SDS011;34422;45.802;16.114;2022-12-07T14:01:47;18.27;;;10.77;;
48623;SDS011;34422;45.802;16.114;2022-12-07T14:04:17;18.92;;;11.70;;
48623;SDS011;34422;45.802;16.114;2022-12-07T14:06:58;21.63;;;12.82;;
48623;SDS011;34422;45.802;16.114;2022-12-07T14:09:27;24.40;;;14.50;;
48623;SDS011;34422;45.802;16.114;2022-12-07T14:11:56;19.67;;;12.50;;
48623;SDS011;34422;45.802;16.114;2022-12-07T14:14:28;29.30;;;14.50;;
48623;SDS011;34422;45.802;16.114;2022-12-07T14:17:01;24.58;;;15.52;;
48623;SDS011;34422;45.802;16.114;2022-12-07T14:24:57;29.77;;;20.40;;
48623;SDS011;34422;45.802;16.114;2022-12-07T14:27:29;23.30;;;15.25;;
48623;SDS011;34422;45.802;16.114;2022-12-07T14:30:00;19.38;;;11.40;;
48623;SDS011;34422;45.802;16.114;2022-12-07T14:32:28;21.08;;;13.35;;
48623;SDS011;34422;45.802;16.114;2022-12-07T14:35:02;19.38;;;13.25;;
48623;SDS011;34422;45.802;16.114;2022-12-07T14:37:36;21.85;;;11.70;;
48623;SDS011;34422;45.802;16.114;2022-12-07T14:40:04;22.70;;;12.75;;
48623;SDS011;34422;45.802;16.114;2022-12-07T14:42:32;19.92;;;12.10;;
48623;SDS011;34422;45.802;16.114;2022-12-07T14:45:00;20.13;;;13.95;;
48623;SDS011;34422;45.802;16.114;2022-12-07T14:47:27;22.05;;;13.40;;
48623;SDS011;34422;45.802;16.114;2022-12-07T14:49:54;22.23;;;13.52;;
48623;SDS011;34422;45.802;16.114;2022-12-07T14:52:27;20.48;;;13.27;;
48623;SDS011;34422;45.802;16.114;2022-12-07T14:54:56;25.15;;;16.35;;
48623;SDS011;34422;45.802;16.114;2022-12-07T14:57:23;26.63;;;15.40;;
48623;SDS011;34422;45.802;16.114;2022-12-07T14:59:50;29.65;;;18.02;;
48623;SDS011;34422;45.802;16.114;2022-12-07T15:02:17;47.78;;;26.50;;
48623;SDS011;34422;45.802;16.114;2022-12-07T15:04:44;35.90;;;22.60;;
48623;SDS011;34422;45.802;16.114;2022-12-07T15:07:15;32.38;;;20.95;;
48623;SDS011;34422;45.802;16.114;2022-12-07T15:09:47;33.08;;;19.60;;
48623;SDS011;34422;45.802;16.114;2022-12-07T15:12:14;24.67;;;14.95;;
48623;SDS011;34422;45.802;16.114;2022-12-07T15:14:41;22.52;;;15.02;;
48623;SDS011;34422;45.802;16.114;2022-12-07T15:17:10;25.13;;;14.85;;
48623;SDS011;34422;45.802;16.114;2022-12-07T15:19:38;24.17;;;13.63;;
48623;SDS011;34422;45.802;16.114;2022-12-07T15:22:05;24.42;;;15.27;;
48623;SDS011;34422;45.802;16.114;2022-12-07T15:24:33;23.92;;;13.25;;
48623;SDS011;34422;45.802;16.114;2022-12-07T15:26:59;22.65;;;12.82;;
48623;SDS011;34422;45.802;16.114;2022-12-07T15:29:26;22.17;;;11.85;;
48623;SDS011;34422;45.802;16.114;2022-12-07T15:31:54;24.48;;;14.35;;
48623;SDS011;34422;45.802;16.114;2022-12-07T15:34:21;23.33;;;13.23;;
48623;SDS011;34422;45.802;16.114;2022-12-07T15:36:50;23.65;;;14.63;;
48623;SDS011;34422;45.802;16.114;2022-12-07T15:39:17;21.98;;;12.80;;
48623;SDS011;34422;45.802;16.114;2022-12-07T15:41:43;25.38;;;14.80;;
48623;SDS011;34422;45.802;16.114;2022-12-07T15:44:14;26.00;;;15.75;;
48623;SDS011;34422;45.802;16.114;2022-12-07T15:47:02;29.75;;;17.30;;
48623;SDS011;34422;45.802;16.114;2022-12-07T15:49:30;35.70;;;20.67;;
48623;SDS011;34422;45.802;16.114;2022-12-07T15:51:58;34.35;;;20.85;;
48623;SDS011;34422;45.802;16.114;2022-12-07T15:54:26;29.83;;;16.23;;
48623;SDS011;34422;45.802;16.114;2022-12-07T15:56:54;38.25;;;21.15;;
48623;SDS011;34422;45.802;16.114;2022-12-07T15:59:21;46.97;;;26.20;;
48623;SDS011;34422;45.802;16.114;2022-12-07T16:01:49;38.17;;;21.98;;
48623;SDS011;34422;45.802;16.114;2022-12-07T16:04:16;36.58;;;22.45;;
48623;SDS011;34422;45.802;16.114;2022-12-07T16:06:43;35.85;;;21.23;;
48623;SDS011;34422;45.802;16.114;2022-12-07T16:09:11;42.72;;;24.52;;
48623;SDS011;34422;45.802;16.114;2022-12-07T16:11:37;45.50;;;24.92;;
48623;SDS011;34422;45.802;16.114;2022-12-07T16:14:05;43.10;;;24.63;;
48623;SDS011;34422;45.802;16.114;2022-12-07T16:16:31;52.92;;;27.67;;
48623;SDS011;34422;45.802;16.114;2022-12-07T16:18:58;41.30;;;23.10;;
48623;SDS011;34422;45.802;16.114;2022-12-07T16:21:25;30.38;;;17.25;;
48623;SDS011;34422;45.802;16.114;2022-12-07T16:23:52;28.63;;;16.13;;
48623;SDS011;34422;45.802;16.114;2022-12-07T16:26:20;24.92;;;14.32;;
48623;SDS011;34422;45.802;16.114;2022-12-07T16:28:48;31.20;;;18.40;;
48623;SDS011;34422;45.802;16.114;2022-12-07T16:31:17;30.75;;;16.98;;
48623;SDS011;34422;45.802;16.114;2022-12-07T16:33:46;27.00;;;15.32;;
48623;SDS011;34422;45.802;16.114;2022-12-07T16:36:14;26.88;;;14.85;;
48623;SDS011;34422;45.802;16.114;2022-12-07T16:38:45;26.13;;;15.70;;
48623;SDS011;34422;45.802;16.114;2022-12-07T16:41:12;30.50;;;17.40;;
48623;SDS011;34422;45.802;16.114;2022-12-07T16:43:42;30.10;;;15.73;;
48623;SDS011;34422;45.802;16.114;2022-12-07T16:46:09;29.17;;;17.40;;
48623;SDS011;34422;45.802;16.114;2022-12-07T16:48:37;30.83;;;17.73;;
48623;SDS011;34422;45.802;16.114;2022-12-07T16:51:05;37.65;;;21.08;;
48623;SDS011;34422;45.802;16.114;2022-12-07T16:53:35;32.28;;;17.73;;
48623;SDS011;34422;45.802;16.114;2022-12-07T16:56:03;30.67;;;16.95;;
48623;SDS011;34422;45.802;16.114;2022-12-07T16:58:30;32.53;;;18.08;;